Weather observations for the past three days for
Tulsa, Tulsa International Airport
Metric (Imperial)
Date Time (cdt) Wind (kph) Vis. (km) Weather Sky Cond. Temperature (ºC) Relative Humidity Wind Chill (°C) Heat Index (°C) Pressure Precipitation (cm)
Air Dwpt 6 hour altimeter (cm) sea level (mb) 1 hr 3 hr 6 hr
Max. Min.
02 13:53 S 19 G 28 16.09 A Few Clouds FEW060 36.1 19.4 37% 38 76.12 1013.6
02 12:53 S 19 G 33 16.09 A Few Clouds FEW060 35.6 19.4 36.1 27.2 39% 38 76.17 1014.6
02 11:53 S 19 G 30 16.09 Fair CLR 34.4 21.1 46% 38 76.25 1015.3
02 10:53 S 19 16.09 Fair CLR 33.3 21.1 49% 37 76.28 1015.6
02 09:53 S 20 16.09 A Few Clouds FEW200 31.1 21.1 55% 34 76.28 1015.8
02 08:53 S 17 16.09 A Few Clouds FEW200 30 20.6 57% 32 76.28 1016.0
02 07:53 S 15 16.09 A Few Clouds FEW200 27.8 20 63% 29 76.28 1015.9
02 06:53 S 15 16.09 A Few Clouds FEW200 27.8 19.4 31.1 27.2 60% 29 76.23 1015.1
02 05:53 S 13 16.09 Partly Cloudy SCT200 27.8 18.9 58% 29 76.2 1014.8
02 04:53 S 13 16.09 Partly Cloudy FEW120 SCT200 28.3 18.9 57% 30 76.17 1014.4
02 03:53 S 19 16.09 Partly Cloudy SCT120 29.4 18.9 53% 31 76.15 1013.9
02 02:53 S 19 16.09 Partly Cloudy SCT120 30 18.3 49% 31 76.15 1014.0
02 01:53 S 19 16.09 Partly Cloudy SCT120 31.1 18.3 46% 32 76.15 1014.0
02 00:53 SE 6 16.09 Partly Cloudy SCT120 27.8 18.9 37.2 27.8 58% 29 76.12 1013.7
01 23:53 S 7 16.09 Partly Cloudy FEW075 SCT120 31.1 18.3 46% 32 76.1 1013.4
01 22:53 SE 6 16.09 Partly Cloudy SCT110 30.6 18.3 48% 32 76.1 1013.5
01 21:53 SE 7 16.09 A Few Clouds FEW090 31.1 18.3 46% 32 76.07 1013.0
01 20:53 SE 6 16.09 Fair CLR 32.2 18.3 44% 33 76 1012.3
01 19:53 SE 13 16.09 Fair CLR 32.8 17.8 41% 34 76 1012.1
01 18:53 S 19 G 31 16.09 A Few Clouds FEW090 37.2 16.1 38.9 36.1 29% 38 76 1012.2
01 17:53 S 17 16.09 A Few Clouds FEW095 37.8 15.6 27% 38 76.02 1012.4
01 16:53 S 22 G 31 16.09 A Few Clouds FEW090 38.3 15.6 26% 39 76.02 1012.5
01 15:53 S 20 G 31 16.09 A Few Clouds FEW090 FEW110 37.8 16.7 29% 39 76.07 1013.0
01 14:53 SW 11 G 30 16.09 Mostly Cloudy BKN100 38.3 18.3 31% 40 76.12 1013.8
01 13:53 Calm 16.09 Mostly Cloudy BKN075 37.2 18.3 33% 39 76.17 1014.5
01 12:53 W 11 16.09 A Few Clouds FEW100 36.1 19.4 36.7 27.8 37% 38 76.25 1015.4
01 11:53 SW 11 G 30 16.09 A Few Clouds FEW100 34.4 20 43% 37 76.3 1016.3
01 10:53 SW 11 16.09 Partly Cloudy SCT100 32.8 20 47% 35 76.33 1016.7
01 09:53 S 15 16.09 Mostly Cloudy BKN100 31.1 20 52% 33 76.35 1016.8
01 08:53 S 17 16.09 Mostly Cloudy BKN100 30.6 19.4 51% 32 76.35 1016.8
01 07:53 S 13 14.48 Partly Cloudy SCT095 28.3 18.9 57% 30 76.33 1016.3
01 06:53 S 15 16.09 Mostly Cloudy BKN095 27.8 18.3 30.6 27.8 56% 29 76.28 1015.8
01 05:53 S 17 16.09 A Few Clouds FEW100 28.3 17.8 53% 29 76.25 1015.4
01 04:53 S 19 16.09 Partly Cloudy SCT100 28.9 17.2 49% 29 76.23 1015.1
01 03:53 S 17 16.09 Mostly Cloudy BKN100 30 16.7 45% 30 76.2 1014.9
01 02:53 S 17 16.09 Mostly Cloudy BKN100 30 16.7 45% 30 76.2 1014.6
01 01:53 S 9 16.09 Mostly Cloudy BKN095 30 16.7 45% 30 76.17 1014.5
01 00:53 SE 9 16.09 Mostly Cloudy BKN095 28.9 16.7 36.7 27.2 48% 29 76.17 1014.5
31 23:53 SE 11 16.09 Mostly Cloudy BKN095 27.8 18.3 56% 29 76.15 1014.1
31 21:53 SE 7 16.09 A Few Clouds FEW120 29.4 17.2 48% 30 76.1 1013.5
31 20:53 SE 7 16.09 Fair CLR 32.2 16.1 38% 32 76.05 1012.9
31 19:53 S 17 16.09 A Few Clouds FEW090 35.6 15 29% 35 76.02 1012.5
31 18:53 S 19 16.09 A Few Clouds FEW090 36.7 15.6 38.9 36.1 28% 37 76.02 1012.4
31 17:53 S 20 16.09 A Few Clouds FEW095 37.8 15 26% 38 76.02 1012.3
31 16:53 S 26 G 37 16.09 A Few Clouds FEW095 38.3 15 25% 38 76.05 1012.6
31 15:53 S 22 G 33 16.09 Partly Cloudy SCT095 37.2 15 27% 37 76.07 1013.1
31 14:53 SW 20 G 39 16.09 Mostly Cloudy BKN090 BKN250 37.8 15.6 27% 38 76.12 1013.7
31 13:53 S 19 G 31 16.09 A Few Clouds FEW080 FEW250 37.8 16.1 28% 38 76.17 1014.4
31 12:53 S 20 G 31 16.09 A Few Clouds FEW080 FEW250 36.7 18.3 36.7 25 34% 38 76.23 1015.0
31 11:53 SW 15 G 26 16.09 A Few Clouds FEW250 35.6 18.9 37% 38 76.28 1015.9
31 10:53 SW 11 16.09 A Few Clouds FEW250 32.8 18.9 44% 34 76.3 1016.2
31 09:53 S 15 16.09 A Few Clouds FEW250 31.7 18.9 47% 33 76.28 1015.9
31 08:53 S 20 16.09 A Few Clouds FEW250 28.9 18.3 53% 30 76.3 1016.1
31 07:53 S 11 16.09 A Few Clouds FEW250 26.1 17.2 58% 27 76.25 1015.6
31 06:53 S 7 16.09 A Few Clouds FEW250 25.6 16.7 29.4 25.6 58% 26 76.2 1014.9
31 05:53 S 11 16.09 A Few Clouds FEW250 26.1 16.7 56% 27 76.15 1013.9
31 04:53 S 17 16.09 A Few Clouds FEW250 27.2 16.7 53% 28 76.1 1013.5
31 03:53 S 19 16.09 A Few Clouds FEW250 27.8 16.7 51% 28 76.1 1013.2
31 02:53 S 19 16.09 A Few Clouds FEW250 28.9 16.7 48% 29 76.07 1013.0
31 01:53 S 17 16.09 A Few Clouds FEW250 29.4 16.7 46% 30 76.07 1013.0
31 00:53 SE 15 16.09 A Few Clouds FEW250 27.2 16.7 37.2 26.7 53% 28 76.05 1012.8
30 23:53 S 15 16.09 A Few Clouds FEW250 30.6 16.1 42% 31 76.02 1012.3
30 22:53 S 17 16.09 A Few Clouds FEW250 31.1 15.6 39% 31 76 1012.2
30 21:53 S 15 16.09 A Few Clouds FEW250 32.8 15 34% 32 75.97 1012.0
30 20:53 SE 13 16.09 A Few Clouds FEW250 33.3 15 33% 33 75.92 1011.1
30 19:53 SE 13 16.09 A Few Clouds FEW250 35.6 15 29% 35 75.9 1010.7
30 18:53 S 20 G 37 16.09 A Few Clouds FEW250 37.2 15.6 38.9 36.1 28% 37 75.9 1010.8
30 17:53 S 24 G 39 16.09 A Few Clouds FEW085 FEW250 38.3 15.6 26% 39 75.9 1010.6
30 16:53 S 22 G 35 16.09 Partly Cloudy FEW090 SCT250 38.3 16.1 27% 39 75.92 1010.9
30 15:53 S 15 G 35 16.09 Partly Cloudy FEW090 SCT250 38.9 16.1 26% 40 75.95 1011.5
30 14:53 Calm 16.09 Mostly Cloudy SCT085 BKN250 37.2 16.1 29% 38 76.02 1012.3
Date Time (cdt) Wind (kph) Vis. (km) Weather Sky Cond. Air Dwpt Max. Min. Relative Humidity Wind Chill (°C) Heat Index (°C) altimeter (cm) sea level (mb) 1 hr 3 hr 6 hr
6 hour
Temperature (ºC) Pressure Precipitation (cm)